sensor_id;sensor_type;location;lat;lon;timestamp;pressure;altitude;pressure_sealevel;temperature;humidity
65557;BME280;52200;53.490;14.376;2023-02-28T00:00:28;103097.91;;;-4.82;84.47
65557;BME280;52200;53.490;14.376;2023-02-28T00:02:53;103102.22;;;-4.79;84.55
65557;BME280;52200;53.490;14.376;2023-02-28T00:05:21;103109.59;;;-4.69;84.12
65557;BME280;52200;53.490;14.376;2023-02-28T00:07:48;103109.81;;;-4.66;83.59
65557;BME280;52200;53.490;14.376;2023-02-28T00:10:19;103116.28;;;-4.68;84.13
65557;BME280;52200;53.490;14.376;2023-02-28T00:12:47;103113.06;;;-4.67;83.42
65557;BME280;52200;53.490;14.376;2023-02-28T00:15:13;103109.38;;;-4.72;83.62
65557;BME280;52200;53.490;14.376;2023-02-28T00:17:38;103110.22;;;-4.72;83.33
65557;BME280;52200;53.490;14.376;2023-02-28T00:20:05;103115.81;;;-4.74;83.41
65557;BME280;52200;53.490;14.376;2023-02-28T00:22:45;103108.31;;;-5.08;83.76
65557;BME280;52200;53.490;14.376;2023-02-28T00:25:13;103099.72;;;-5.02;84.21
65557;BME280;52200;53.490;14.376;2023-02-28T00:27:40;103107.72;;;-4.94;84.01
65557;BME280;52200;53.490;14.376;2023-02-28T00:30:08;103111.91;;;-4.82;83.67
65557;BME280;52200;53.490;14.376;2023-02-28T00:32:34;103111.66;;;-4.86;83.67
65557;BME280;52200;53.490;14.376;2023-02-28T00:35:00;103108.84;;;-4.90;82.97
65557;BME280;52200;53.490;14.376;2023-02-28T00:37:25;103118.72;;;-5.12;83.12
65557;BME280;52200;53.490;14.376;2023-02-28T00:39:51;103117.97;;;-5.11;83.78
65557;BME280;52200;53.490;14.376;2023-02-28T00:42:16;103120.19;;;-5.04;83.18
65557;BME280;52200;53.490;14.376;2023-02-28T00:44:41;103115.66;;;-5.10;83.48
65557;BME280;52200;53.490;14.376;2023-02-28T00:47:07;103118.69;;;-5.02;83.98
65557;BME280;52200;53.490;14.376;2023-02-28T00:49:32;103118.44;;;-5.05;83.27
65557;BME280;52200;53.490;14.376;2023-02-28T00:51:57;103125.16;;;-5.04;83.33
65557;BME280;52200;53.490;14.376;2023-02-28T00:54:23;103126.69;;;-5.16;83.06
65557;BME280;52200;53.490;14.376;2023-02-28T00:56:49;103135.47;;;-5.10;83.33
65557;BME280;52200;53.490;14.376;2023-02-28T00:59:16;103132.63;;;-5.14;83.17
65557;BME280;52200;53.490;14.376;2023-02-28T01:01:43;103142.09;;;-5.31;83.72
65557;BME280;52200;53.490;14.376;2023-02-28T01:04:09;103148.50;;;-5.23;83.62
65557;BME280;52200;53.490;14.376;2023-02-28T01:06:34;103144.94;;;-5.26;83.83
65557;BME280;52200;53.490;14.376;2023-02-28T01:09:02;103142.09;;;-5.31;83.99
65557;BME280;52200;53.490;14.376;2023-02-28T01:11:27;103140.91;;;-5.46;83.76
65557;BME280;52200;53.490;14.376;2023-02-28T01:13:53;103146.34;;;-5.40;83.64
65557;BME280;52200;53.490;14.376;2023-02-28T01:16:18;103145.13;;;-5.45;83.75
65557;BME280;52200;53.490;14.376;2023-02-28T01:18:43;103144.97;;;-5.37;83.60
65557;BME280;52200;53.490;14.376;2023-02-28T01:21:14;103149.34;;;-5.44;84.42
65557;BME280;52200;53.490;14.376;2023-02-28T01:23:41;103145.94;;;-5.35;83.69
65557;BME280;52200;53.490;14.376;2023-02-28T01:26:07;103149.66;;;-5.40;83.68
65557;BME280;52200;53.490;14.376;2023-02-28T01:28:33;103135.16;;;-5.35;83.18
65557;BME280;52200;53.490;14.376;2023-02-28T01:30:59;103144.09;;;-5.37;82.96
65557;BME280;52200;53.490;14.376;2023-02-28T01:33:25;103142.50;;;-5.47;83.16
65557;BME280;52200;53.490;14.376;2023-02-28T01:35:58;103144.50;;;-5.53;83.27
65557;BME280;52200;53.490;14.376;2023-02-28T01:38:23;103147.94;;;-5.41;82.75
65557;BME280;52200;53.490;14.376;2023-02-28T01:40:49;103149.56;;;-5.41;83.02
65557;BME280;52200;53.490;14.376;2023-02-28T01:43:23;103144.84;;;-5.48;83.50
65557;BME280;52200;53.490;14.376;2023-02-28T01:45:50;103138.53;;;-5.45;83.45
65557;BME280;52200;53.490;14.376;2023-02-28T01:48:16;103141.66;;;-5.68;82.86
65557;BME280;52200;53.490;14.376;2023-02-28T01:50:43;103142.91;;;-5.53;83.37
65557;BME280;52200;53.490;14.376;2023-02-28T01:53:14;103137.72;;;-5.66;83.26
65557;BME280;52200;53.490;14.376;2023-02-28T01:55:46;103137.59;;;-5.68;83.94
65557;BME280;52200;53.490;14.376;2023-02-28T01:58:12;103134.09;;;-5.59;83.28
65557;BME280;52200;53.490;14.376;2023-02-28T02:00:38;103137.06;;;-5.53;83.42
65557;BME280;52200;53.490;14.376;2023-02-28T02:03:09;103140.69;;;-5.60;82.57
65557;BME280;52200;53.490;14.376;2023-02-28T02:05:37;103151.81;;;-5.55;82.79
65557;BME280;52200;53.490;14.376;2023-02-28T02:08:05;103143.25;;;-5.58;82.63
65557;BME280;52200;53.490;14.376;2023-02-28T02:18:46;103143.19;;;-5.70;82.27
65557;BME280;52200;53.490;14.376;2023-02-28T02:27:24;103139.09;;;-5.80;82.84
65557;BME280;52200;53.490;14.376;2023-02-28T02:41:26;103139.34;;;-5.87;82.41
65557;BME280;52200;53.490;14.376;2023-02-28T02:43:53;103140.81;;;-5.89;82.29
65557;BME280;52200;53.490;14.376;2023-02-28T02:46:42;103144.41;;;-5.86;82.29
65557;BME280;52200;53.490;14.376;2023-02-28T02:49:21;103152.25;;;-6.12;82.22
65557;BME280;52200;53.490;14.376;2023-02-28T02:51:48;103149.44;;;-6.06;82.96
65557;BME280;52200;53.490;14.376;2023-02-28T02:54:19;103141.06;;;-5.96;82.46
65557;BME280;52200;53.490;14.376;2023-02-28T02:56:48;103149.63;;;-5.93;82.07
65557;BME280;52200;53.490;14.376;2023-02-28T02:59:18;103142.84;;;-6.06;82.25
65557;BME280;52200;53.490;14.376;2023-02-28T03:01:50;103146.91;;;-5.96;82.42
65557;BME280;52200;53.490;14.376;2023-02-28T03:04:19;103140.03;;;-6.00;82.36
65557;BME280;52200;53.490;14.376;2023-02-28T03:06:46;103135.28;;;-5.97;82.09
65557;BME280;52200;53.490;14.376;2023-02-28T03:09:12;103139.66;;;-6.05;82.07
65557;BME280;52200;53.490;14.376;2023-02-28T03:11:38;103146.66;;;-6.30;82.81
65557;BME280;52200;53.490;14.376;2023-02-28T03:15:32;103144.56;;;-6.15;82.24
65557;BME280;52200;53.490;14.376;2023-02-28T03:20:38;103140.75;;;-6.11;82.00
65557;BME280;52200;53.490;14.376;2023-02-28T03:25:59;103148.13;;;-6.53;83.17
65557;BME280;52200;53.490;14.376;2023-02-28T03:31:27;103146.69;;;-6.20;82.03
65557;BME280;52200;53.490;14.376;2023-02-28T03:34:12;103146.53;;;-6.21;82.30
65557;BME280;52200;53.490;14.376;2023-02-28T03:36:48;103136.53;;;-6.23;82.42
65557;BME280;52200;53.490;14.376;2023-02-28T03:39:23;103145.94;;;-6.29;82.38
65557;BME280;52200;53.490;14.376;2023-02-28T03:42:12;103147.44;;;-6.21;82.07
65557;BME280;52200;53.490;14.376;2023-02-28T03:44:43;103144.22;;;-6.20;81.38
65557;BME280;52200;53.490;14.376;2023-02-28T03:47:22;103143.22;;;-6.22;81.81
65557;BME280;52200;53.490;14.376;2023-02-28T03:52:32;103136.53;;;-6.23;81.52
65557;BME280;52200;53.490;14.376;2023-02-28T03:55:05;103138.50;;;-6.29;81.98
65557;BME280;52200;53.490;14.376;2023-02-28T04:02:54;103152.25;;;-6.83;83.27
65557;BME280;52200;53.490;14.376;2023-02-28T04:05:21;103150.94;;;-6.98;85.11
65557;BME280;52200;53.490;14.376;2023-02-28T04:07:46;103148.53;;;-6.88;84.52
65557;BME280;52200;53.490;14.376;2023-02-28T04:10:12;103136.91;;;-6.89;84.94
65557;BME280;52200;53.490;14.376;2023-02-28T04:12:38;103141.56;;;-6.52;83.94
65557;BME280;52200;53.490;14.376;2023-02-28T04:15:04;103135.34;;;-6.78;83.80
65557;BME280;52200;53.490;14.376;2023-02-28T04:17:30;103138.13;;;-6.94;84.82
65557;BME280;52200;53.490;14.376;2023-02-28T04:19:55;103141.66;;;-6.71;84.85
65557;BME280;52200;53.490;14.376;2023-02-28T04:22:22;103139.78;;;-6.74;83.78
65557;BME280;52200;53.490;14.376;2023-02-28T04:24:50;103132.28;;;-6.55;83.58
65557;BME280;52200;53.490;14.376;2023-02-28T04:27:16;103144.09;;;-6.82;83.93
65557;BME280;52200;53.490;14.376;2023-02-28T04:29:41;103133.97;;;-6.74;83.68
65557;BME280;52200;53.490;14.376;2023-02-28T04:32:10;103144.34;;;-6.78;84.48
65557;BME280;52200;53.490;14.376;2023-02-28T04:34:35;103141.16;;;-6.67;83.81
65557;BME280;52200;53.490;14.376;2023-02-28T04:37:01;103152.25;;;-6.83;84.12
65557;BME280;52200;53.490;14.376;2023-02-28T04:39:28;103146.47;;;-7.02;84.05
65557;BME280;52200;53.490;14.376;2023-02-28T04:41:54;103152.69;;;-6.97;84.68
65557;BME280;52200;53.490;14.376;2023-02-28T04:44:20;103148.03;;;-6.84;84.28
65557;BME280;52200;53.490;14.376;2023-02-28T04:46:47;103151.13;;;-6.86;84.11
65557;BME280;52200;53.490;14.376;2023-02-28T04:49:13;103150.09;;;-6.99;84.71
65557;BME280;52200;53.490;14.376;2023-02-28T04:51:39;103156.47;;;-6.82;84.95
65557;BME280;52200;53.490;14.376;2023-02-28T04:54:04;103149.13;;;-6.90;84.82
65557;BME280;52200;53.490;14.376;2023-02-28T04:56:30;103148.72;;;-6.66;84.50
65557;BME280;52200;53.490;14.376;2023-02-28T04:58:55;103143.41;;;-6.60;83.61
65557;BME280;52200;53.490;14.376;2023-02-28T05:01:26;103147.09;;;-6.65;83.45
65557;BME280;52200;53.490;14.376;2023-02-28T05:03:54;103144.53;;;-6.96;83.58
65557;BME280;52200;53.490;14.376;2023-02-28T05:06:24;103153.41;;;-6.98;84.51
65557;BME280;52200;53.490;14.376;2023-02-28T05:08:49;103148.63;;;-6.97;83.78
65557;BME280;52200;53.490;14.376;2023-02-28T05:11:27;103152.44;;;-7.00;84.09
65557;BME280;52200;53.490;14.376;2023-02-28T05:13:55;103151.91;;;-7.06;84.09
65557;BME280;52200;53.490;14.376;2023-02-28T05:16:21;103153.53;;;-7.26;85.01
65557;BME280;52200;53.490;14.376;2023-02-28T05:18:47;103153.28;;;-7.00;84.65
65557;BME280;52200;53.490;14.376;2023-02-28T05:21:29;103148.41;;;-7.19;84.20
65557;BME280;52200;53.490;14.376;2023-02-28T05:23:57;103159.66;;;-6.83;84.47
65557;BME280;52200;53.490;14.376;2023-02-28T05:26:23;103147.09;;;-6.75;83.70
65557;BME280;52200;53.490;14.376;2023-02-28T05:28:49;103148.22;;;-6.72;83.01
65557;BME280;52200;53.490;14.376;2023-02-28T05:31:14;103161.13;;;-6.85;83.63
65557;BME280;52200;53.490;14.376;2023-02-28T05:33:40;103156.47;;;-6.71;82.97
65557;BME280;52200;53.490;14.376;2023-02-28T05:36:06;103161.16;;;-6.74;82.51
65557;BME280;52200;53.490;14.376;2023-02-28T05:38:31;103153.28;;;-6.70;82.73
65557;BME280;52200;53.490;14.376;2023-02-28T05:40:57;103150.06;;;-6.69;82.73
65557;BME280;52200;53.490;14.376;2023-02-28T05:43:23;103153.63;;;-6.76;82.46
65557;BME280;52200;53.490;14.376;2023-02-28T05:45:48;103149.78;;;-6.72;82.63
65557;BME280;52200;53.490;14.376;2023-02-28T05:48:14;103165.44;;;-7.12;83.05
65557;BME280;52200;53.490;14.376;2023-02-28T05:50:39;103171.75;;;-6.86;83.75
65557;BME280;52200;53.490;14.376;2023-02-28T05:53:05;103173.25;;;-6.77;82.88
65557;BME280;52200;53.490;14.376;2023-02-28T05:55:30;103173.38;;;-7.05;83.22
65557;BME280;52200;53.490;14.376;2023-02-28T05:57:55;103185.50;;;-7.08;83.81
65557;BME280;52200;53.490;14.376;2023-02-28T06:00:21;103189.03;;;-6.86;83.68
65557;BME280;52200;53.490;14.376;2023-02-28T06:02:46;103190.81;;;-6.74;83.02
65557;BME280;52200;53.490;14.376;2023-02-28T06:05:16;103181.91;;;-6.83;82.88
65557;BME280;52200;53.490;14.376;2023-02-28T06:07:43;103188.13;;;-6.67;82.78
65557;BME280;52200;53.490;14.376;2023-02-28T06:10:10;103183.31;;;-6.66;82.15
65557;BME280;52200;53.490;14.376;2023-02-28T06:12:36;103195.41;;;-6.98;83.12
65557;BME280;52200;53.490;14.376;2023-02-28T06:15:02;103194.03;;;-6.75;82.57
65557;BME280;52200;53.490;14.376;2023-02-28T06:17:28;103196.94;;;-6.60;82.47
65557;BME280;52200;53.490;14.376;2023-02-28T06:19:53;103201.88;;;-6.60;82.40
65557;BME280;52200;53.490;14.376;2023-02-28T06:22:18;103198.44;;;-6.52;82.24
65557;BME280;52200;53.490;14.376;2023-02-28T06:24:44;103202.50;;;-6.53;82.14
65557;BME280;52200;53.490;14.376;2023-02-28T06:27:09;103207.13;;;-6.47;82.17
65557;BME280;52200;53.490;14.376;2023-02-28T06:29:35;103210.22;;;-6.39;82.09
65557;BME280;52200;53.490;14.376;2023-02-28T06:32:00;103200.84;;;-6.33;81.70
65557;BME280;52200;53.490;14.376;2023-02-28T06:34:26;103206.28;;;-6.27;82.08
65557;BME280;52200;53.490;14.376;2023-02-28T06:36:51;103210.84;;;-6.42;81.97
65557;BME280;52200;53.490;14.376;2023-02-28T06:39:17;103210.31;;;-6.48;82.96
65557;BME280;52200;53.490;14.376;2023-02-28T06:41:42;103212.06;;;-6.76;83.89
65557;BME280;52200;53.490;14.376;2023-02-28T06:44:15;103215.66;;;-6.43;83.96
65557;BME280;52200;53.490;14.376;2023-02-28T06:46:42;103212.47;;;-6.11;83.48
65557;BME280;52200;53.490;14.376;2023-02-28T06:49:08;103210.50;;;-6.26;83.42
65557;BME280;52200;53.490;14.376;2023-02-28T06:51:35;103214.25;;;-6.00;83.33
65557;BME280;52200;53.490;14.376;2023-02-28T06:54:01;103218.94;;;-5.83;83.32
65557;BME280;52200;53.490;14.376;2023-02-28T06:56:27;103212.25;;;-5.73;83.03
65557;BME280;52200;53.490;14.376;2023-02-28T06:58:53;103207.41;;;-5.61;83.14
65557;BME280;52200;53.490;14.376;2023-02-28T07:01:18;103220.66;;;-5.51;83.46
65557;BME280;52200;53.490;14.376;2023-02-28T07:03:45;103214.94;;;-5.39;83.02
65557;BME280;52200;53.490;14.376;2023-02-28T07:06:10;103219.66;;;-5.32;82.58
65557;BME280;52200;53.490;14.376;2023-02-28T07:08:36;103222.47;;;-5.17;82.98
65557;BME280;52200;53.490;14.376;2023-02-28T07:11:02;103222.53;;;-5.05;82.67
65557;BME280;52200;53.490;14.376;2023-02-28T07:13:27;103225.25;;;-4.92;82.75
65557;BME280;52200;53.490;14.376;2023-02-28T07:16:01;103229.19;;;-4.83;82.77
65557;BME280;52200;53.490;14.376;2023-02-28T07:18:28;103227.88;;;-4.68;83.25
65557;BME280;52200;53.490;14.376;2023-02-28T07:20:53;103230.53;;;-4.55;82.82
65557;BME280;52200;53.490;14.376;2023-02-28T07:23:19;103232.47;;;-4.40;83.55
65557;BME280;52200;53.490;14.376;2023-02-28T07:25:45;103221.47;;;-4.32;83.29
65557;BME280;52200;53.490;14.376;2023-02-28T07:28:11;103222.28;;;-4.21;83.68
65557;BME280;52200;53.490;14.376;2023-02-28T07:30:37;103224.59;;;-4.12;84.12
65557;BME280;52200;53.490;14.376;2023-02-28T07:33:03;103222.91;;;-4.01;83.87
65557;BME280;52200;53.490;14.376;2023-02-28T07:35:29;103226.44;;;-3.76;84.78
65557;BME280;52200;53.490;14.376;2023-02-28T07:37:54;103226.94;;;-3.58;84.40
65557;BME280;52200;53.490;14.376;2023-02-28T07:40:20;103228.44;;;-3.48;84.47
65557;BME280;52200;53.490;14.376;2023-02-28T07:42:45;103222.19;;;-3.31;84.34
65557;BME280;52200;53.490;14.376;2023-02-28T07:45:11;103225.88;;;-3.14;84.07
65557;BME280;52200;53.490;14.376;2023-02-28T07:47:41;103228.91;;;-3.06;84.37
65557;BME280;52200;53.490;14.376;2023-02-28T07:50:09;103221.22;;;-2.97;84.71
65557;BME280;52200;53.490;14.376;2023-02-28T07:52:36;103227.69;;;-2.76;84.62
65557;BME280;52200;53.490;14.376;2023-02-28T07:55:02;103235.56;;;-2.69;85.51
65557;BME280;52200;53.490;14.376;2023-02-28T07:57:27;103234.66;;;-2.46;85.35
65557;BME280;52200;53.490;14.376;2023-02-28T07:59:52;103233.50;;;-2.26;85.10
65557;BME280;52200;53.490;14.376;2023-02-28T08:02:18;103221.13;;;-2.13;84.46
65557;BME280;52200;53.490;14.376;2023-02-28T08:04:44;103224.69;;;-1.96;85.00
65557;BME280;52200;53.490;14.376;2023-02-28T08:07:12;103219.97;;;-1.79;84.83
65557;BME280;52200;53.490;14.376;2023-02-28T08:09:41;103217.63;;;-1.64;85.37
65557;BME280;52200;53.490;14.376;2023-02-28T08:12:07;103218.69;;;-1.47;84.77
65557;BME280;52200;53.490;14.376;2023-02-28T08:14:33;103220.63;;;-1.30;85.02
65557;BME280;52200;53.490;14.376;2023-02-28T08:16:59;103223.97;;;-1.16;85.06
65557;BME280;52200;53.490;14.376;2023-02-28T08:19:24;103220.72;;;-1.01;85.39
65557;BME280;52200;53.490;14.376;2023-02-28T08:21:49;103217.53;;;-0.85;85.60
65557;BME280;52200;53.490;14.376;2023-02-28T08:24:15;103210.78;;;-0.73;85.25
65557;BME280;52200;53.490;14.376;2023-02-28T08:26:40;103209.19;;;-0.57;85.33
65557;BME280;52200;53.490;14.376;2023-02-28T08:29:06;103215.06;;;-0.57;85.98
65557;BME280;52200;53.490;14.376;2023-02-28T08:31:31;103207.59;;;-0.57;87.05
65557;BME280;52200;53.490;14.376;2023-02-28T08:33:56;103212.81;;;-0.24;86.35
65557;BME280;52200;53.490;14.376;2023-02-28T08:36:24;103213.19;;;-0.03;85.91
65557;BME280;52200;53.490;14.376;2023-02-28T08:38:50;103214.59;;;0.22;84.91
65557;BME280;52200;53.490;14.376;2023-02-28T08:41:15;103211.34;;;0.38;83.79
65557;BME280;52200;53.490;14.376;2023-02-28T08:43:40;103209.44;;;0.49;83.36
65557;BME280;52200;53.490;14.376;2023-02-28T08:46:07;103209.78;;;0.55;82.88
65557;BME280;52200;53.490;14.376;2023-02-28T08:48:33;103208.81;;;0.68;83.01
65557;BME280;52200;53.490;14.376;2023-02-28T08:51:02;103206.63;;;0.89;81.99
65557;BME280;52200;53.490;14.376;2023-02-28T08:53:28;103197.53;;;0.91;82.02
65557;BME280;52200;53.490;14.376;2023-02-28T08:56:02;103206.19;;;1.13;80.71
65557;BME280;52200;53.490;14.376;2023-02-28T08:58:28;103197.84;;;1.29;79.40
65557;BME280;52200;53.490;14.376;2023-02-28T09:00:54;103206.84;;;1.42;79.80
65557;BME280;52200;53.490;14.376;2023-02-28T09:03:21;103216.91;;;1.58;78.82
65557;BME280;52200;53.490;14.376;2023-02-28T09:05:58;103211.66;;;1.54;78.92
65557;BME280;52200;53.490;14.376;2023-02-28T09:08:26;103203.25;;;1.37;78.86
65557;BME280;52200;53.490;14.376;2023-02-28T09:10:52;103207.41;;;1.69;78.32
65557;BME280;52200;53.490;14.376;2023-02-28T09:13:18;103207.94;;;1.80;78.12
65557;BME280;52200;53.490;14.376;2023-02-28T09:15:44;103215.22;;;1.92;76.98
65557;BME280;52200;53.490;14.376;2023-02-28T09:18:10;103205.66;;;1.68;77.03
65557;BME280;52200;53.490;14.376;2023-02-28T09:20:39;103207.03;;;2.13;76.13
65557;BME280;52200;53.490;14.376;2023-02-28T09:23:06;103198.16;;;2.37;74.67
65557;BME280;52200;53.490;14.376;2023-02-28T09:25:32;103213.41;;;2.06;75.96
65557;BME280;52200;53.490;14.376;2023-02-28T09:27:57;103209.91;;;1.69;75.41
65557;BME280;52200;53.490;14.376;2023-02-28T09:30:22;103211.19;;;1.61;75.07
65557;BME280;52200;53.490;14.376;2023-02-28T09:32:48;103206.69;;;1.72;75.25
65557;BME280;52200;53.490;14.376;2023-02-28T09:35:18;103212.06;;;2.31;74.12
65557;BME280;52200;53.490;14.376;2023-02-28T09:37:44;103211.13;;;2.29;72.55
65557;BME280;52200;53.490;14.376;2023-02-28T09:40:10;103217.28;;;2.17;73.96
65557;BME280;52200;53.490;14.376;2023-02-28T09:42:37;103213.22;;;2.19;73.07
65557;BME280;52200;53.490;14.376;2023-02-28T09:45:17;103225.69;;;2.36;72.92
65557;BME280;52200;53.490;14.376;2023-02-28T09:47:47;103232.66;;;2.60;72.46
65557;BME280;52200;53.490;14.376;2023-02-28T09:52:53;103227.44;;;2.91;72.17
65557;BME280;52200;53.490;14.376;2023-02-28T09:55:31;103223.09;;;3.44;69.61
65557;BME280;52200;53.490;14.376;2023-02-28T09:58:00;103213.22;;;3.49;69.08
65557;BME280;52200;53.490;14.376;2023-02-28T10:00:34;103216.09;;;3.57;68.04
65557;BME280;52200;53.490;14.376;2023-02-28T10:03:04;103230.28;;;3.56;67.56
65557;BME280;52200;53.490;14.376;2023-02-28T10:05:38;103220.75;;;3.68;66.52
65557;BME280;52200;53.490;14.376;2023-02-28T10:08:19;103224.41;;;3.55;67.00
65557;BME280;52200;53.490;14.376;2023-02-28T10:11:01;103216.19;;;3.79;65.76
65557;BME280;52200;53.490;14.376;2023-02-28T10:13:52;103221.06;;;3.96;65.22
65557;BME280;52200;53.490;14.376;2023-02-28T10:16:27;103214.59;;;4.01;64.80
65557;BME280;52200;53.490;14.376;2023-02-28T10:19:20;103209.91;;;3.89;64.98
65557;BME280;52200;53.490;14.376;2023-02-28T10:21:48;103203.19;;;3.90;65.39
65557;BME280;52200;53.490;14.376;2023-02-28T10:24:21;103198.84;;;3.85;66.48
65557;BME280;52200;53.490;14.376;2023-02-28T10:26:48;103203.38;;;3.73;67.55
65557;BME280;52200;53.490;14.376;2023-02-28T10:29:14;103203.09;;;3.47;67.26
65557;BME280;52200;53.490;14.376;2023-02-28T10:31:40;103202.84;;;3.61;69.17
65557;BME280;52200;53.490;14.376;2023-02-28T10:34:07;103209.31;;;3.75;67.95
65557;BME280;52200;53.490;14.376;2023-02-28T10:36:32;103210.38;;;3.80;67.43
65557;BME280;52200;53.490;14.376;2023-02-28T10:38:58;103213.69;;;3.79;66.76
65557;BME280;52200;53.490;14.376;2023-02-28T10:41:32;103215.50;;;4.03;67.33
65557;BME280;52200;53.490;14.376;2023-02-28T10:44:19;103201.66;;;3.93;65.76
65557;BME280;52200;53.490;14.376;2023-02-28T10:46:45;103211.59;;;3.69;65.50
65557;BME280;52200;53.490;14.376;2023-02-28T10:49:28;103205.06;;;3.94;65.64
65557;BME280;52200;53.490;14.376;2023-02-28T10:51:56;103202.28;;;3.87;64.41
65557;BME280;52200;53.490;14.376;2023-02-28T10:54:36;103205.63;;;4.08;64.99
65557;BME280;52200;53.490;14.376;2023-02-28T10:57:17;103198.81;;;4.26;64.95
65557;BME280;52200;53.490;14.376;2023-02-28T10:59:43;103209.59;;;4.45;64.78
65557;BME280;52200;53.490;14.376;2023-02-28T11:02:44;103201.56;;;4.54;63.23
65557;BME280;52200;53.490;14.376;2023-02-28T11:05:31;103202.78;;;4.42;63.21
65557;BME280;52200;53.490;14.376;2023-02-28T11:08:14;103199.25;;;4.37;63.50
65557;BME280;52200;53.490;14.376;2023-02-28T11:10:45;103207.94;;;4.45;62.93
65557;BME280;52200;53.490;14.376;2023-02-28T11:13:20;103197.47;;;4.34;62.22
65557;BME280;52200;53.490;14.376;2023-02-28T11:15:57;103194.78;;;4.52;63.83
65557;BME280;52200;53.490;14.376;2023-02-28T11:18:44;103189.66;;;4.49;62.43
65557;BME280;52200;53.490;14.376;2023-02-28T11:21:19;103196.47;;;4.75;62.72
65557;BME280;52200;53.490;14.376;2023-02-28T11:23:48;103192.53;;;4.81;62.68
65557;BME280;52200;53.490;14.376;2023-02-28T11:26:14;103188.91;;;4.97;61.46
65557;BME280;52200;53.490;14.376;2023-02-28T11:28:41;103189.09;;;4.79;60.48
65557;BME280;52200;53.490;14.376;2023-02-28T11:33:59;103181.91;;;4.45;60.35
65557;BME280;52200;53.490;14.376;2023-02-28T11:36:29;103181.94;;;4.24;59.93
65557;BME280;52200;53.490;14.376;2023-02-28T11:39:01;103185.50;;;4.29;60.14
65557;BME280;52200;53.490;14.376;2023-02-28T11:46:50;103170.03;;;4.41;60.01
65557;BME280;52200;53.490;14.376;2023-02-28T11:49:31;103168.97;;;4.35;60.23
65557;BME280;52200;53.490;14.376;2023-02-28T11:52:21;103177.97;;;4.51;60.05
65557;BME280;52200;53.490;14.376;2023-02-28T11:57:55;103169.38;;;4.46;60.29
65557;BME280;52200;53.490;14.376;2023-02-28T12:05:51;103159.84;;;4.60;59.29
65557;BME280;52200;53.490;14.376;2023-02-28T12:08:41;103163.88;;;4.34;58.76
65557;BME280;52200;53.490;14.376;2023-02-28T12:16:53;103159.31;;;4.46;57.69
65557;BME280;52200;53.490;14.376;2023-02-28T12:19:34;103156.38;;;4.57;58.21
65557;BME280;52200;53.490;14.376;2023-02-28T12:26:58;103142.72;;;4.51;58.46
65557;BME280;52200;53.490;14.376;2023-02-28T12:29:28;103148.41;;;4.68;57.80
65557;BME280;52200;53.490;14.376;2023-02-28T12:34:52;103143.56;;;4.50;56.72
65557;BME280;52200;53.490;14.376;2023-02-28T12:40:02;103135.19;;;4.08;57.81
65557;BME280;52200;53.490;14.376;2023-02-28T12:42:34;103135.63;;;4.41;58.46
65557;BME280;52200;53.490;14.376;2023-02-28T12:45:10;103128.09;;;4.64;57.70
65557;BME280;52200;53.490;14.376;2023-02-28T12:47:40;103123.41;;;4.73;57.22
65557;BME280;52200;53.490;14.376;2023-02-28T12:50:09;103118.63;;;4.57;57.60
65557;BME280;52200;53.490;14.376;2023-02-28T12:55:21;103115.50;;;4.64;56.00
65557;BME280;52200;53.490;14.376;2023-02-28T12:58:01;103110.97;;;4.78;56.80
65557;BME280;52200;53.490;14.376;2023-02-28T13:00:34;103109.34;;;4.80;57.34
65557;BME280;52200;53.490;14.376;2023-02-28T13:11:39;103099.81;;;4.71;57.99
65557;BME280;52200;53.490;14.376;2023-02-28T13:19:38;103095.81;;;4.54;58.88
65557;BME280;52200;53.490;14.376;2023-02-28T13:22:04;103095.94;;;4.34;58.92
65557;BME280;52200;53.490;14.376;2023-02-28T13:29:30;103086.34;;;4.69;58.51
65557;BME280;52200;53.490;14.376;2023-02-28T13:42:35;103089.59;;;4.44;58.09
65557;BME280;52200;53.490;14.376;2023-02-28T13:47:44;103075.47;;;4.47;57.54
65557;BME280;52200;53.490;14.376;2023-02-28T13:50:33;103078.56;;;4.63;56.63
65557;BME280;52200;53.490;14.376;2023-02-28T13:56:01;103074.41;;;4.65;56.04
65557;BME280;52200;53.490;14.376;2023-02-28T13:58:48;103077.84;;;4.67;55.52
65557;BME280;52200;53.490;14.376;2023-02-28T14:04:28;103077.59;;;4.59;54.90
65557;BME280;52200;53.490;14.376;2023-02-28T14:07:01;103072.38;;;4.55;54.58
65557;BME280;52200;53.490;14.376;2023-02-28T14:09:31;103077.50;;;4.58;55.56
65557;BME280;52200;53.490;14.376;2023-02-28T14:12:51;103074.75;;;4.51;55.14
65557;BME280;52200;53.490;14.376;2023-02-28T14:15:04;103064.91;;;4.58;55.46
65557;BME280;52200;53.490;14.376;2023-02-28T14:17:31;103068.22;;;4.79;55.95
65557;BME280;52200;53.490;14.376;2023-02-28T14:19:57;103067.66;;;4.64;54.80
65557;BME280;52200;53.490;14.376;2023-02-28T14:22:42;103064.78;;;4.53;55.03
65557;BME280;52200;53.490;14.376;2023-02-28T14:30:52;103058.06;;;4.54;55.27
65557;BME280;52200;53.490;14.376;2023-02-28T14:36:07;103059.28;;;4.41;54.74
65557;BME280;52200;53.490;14.376;2023-02-28T14:38:52;103060.19;;;4.43;54.73
65557;BME280;52200;53.490;14.376;2023-02-28T14:41:29;103054.53;;;4.48;55.07
65557;BME280;52200;53.490;14.376;2023-02-28T14:43:58;103051.66;;;4.16;55.54
65557;BME280;52200;53.490;14.376;2023-02-28T14:46:37;103062.47;;;4.14;55.63
65557;BME280;52200;53.490;14.376;2023-02-28T14:49:05;103049.50;;;4.26;55.44
65557;BME280;52200;53.490;14.376;2023-02-28T14:51:31;103055.09;;;4.41;54.38
65557;BME280;52200;53.490;14.376;2023-02-28T14:54:00;103050.34;;;4.49;55.11
65557;BME280;52200;53.490;14.376;2023-02-28T14:56:48;103052.09;;;4.51;54.97
65557;BME280;52200;53.490;14.376;2023-02-28T14:59:32;103056.47;;;4.33;54.79
65557;BME280;52200;53.490;14.376;2023-02-28T15:02:29;103051.44;;;4.33;55.05